createdAt,value
2023-05-10T00:00:44.228Z,12.84
2023-05-10T00:01:36.223Z,12.74
2023-05-10T00:02:27.934Z,12.73
2023-05-10T00:03:19.492Z,12.73
2023-05-10T00:04:11.134Z,12.76
2023-05-10T00:05:03.058Z,12.74
2023-05-10T00:05:54.545Z,12.76
2023-05-10T00:06:45.948Z,12.82
2023-05-10T00:07:37.397Z,12.83
2023-05-10T00:08:29.054Z,12.76
2023-05-10T00:09:20.563Z,12.80
2023-05-10T00:10:12.532Z,12.82
2023-05-10T00:11:05.433Z,12.80
2023-05-10T00:12:00.475Z,12.81
2023-05-10T00:12:51.919Z,12.75
2023-05-10T00:13:43.517Z,12.74
2023-05-10T00:14:36.419Z,12.81
2023-05-10T00:15:27.945Z,12.82
2023-05-10T00:16:21.699Z,12.82
2023-05-10T00:17:13.300Z,12.82
2023-05-10T00:18:04.972Z,12.78
2023-05-10T00:18:56.423Z,12.81
2023-05-10T00:19:48.129Z,12.80
2023-05-10T00:20:39.574Z,12.78
2023-05-10T00:21:31.364Z,12.73
2023-05-10T00:22:22.814Z,12.78
2023-05-10T00:23:14.290Z,12.73
2023-05-10T00:24:06.004Z,12.73
2023-05-10T00:24:57.468Z,12.64
2023-05-10T00:25:48.955Z,12.62
2023-05-10T00:26:40.476Z,12.65
2023-05-10T00:27:35.792Z,12.60
2023-05-10T00:28:29.423Z,12.63
2023-05-10T00:29:21.712Z,12.60
2023-05-10T00:30:14.782Z,12.58
2023-05-10T00:31:06.444Z,12.56
2023-05-10T00:31:57.950Z,12.57
2023-05-10T00:32:50.719Z,12.59
2023-05-10T00:33:42.432Z,12.57
2023-05-10T00:34:34.165Z,12.59
2023-05-10T00:35:30.814Z,12.57
2023-05-10T00:36:22.306Z,12.56
2023-05-10T00:37:15.114Z,12.60
2023-05-10T00:38:06.824Z,12.60
2023-05-10T00:38:58.375Z,12.56
2023-05-10T00:39:50.091Z,12.56
2023-05-10T00:40:42.907Z,12.57
2023-05-10T00:41:41.388Z,12.60
2023-05-10T00:42:32.802Z,12.59
2023-05-10T00:43:27.113Z,12.56
2023-05-10T00:44:20.759Z,12.56
2023-05-10T00:45:12.609Z,12.59
2023-05-10T00:46:05.544Z,12.66
2023-05-10T00:46:58.820Z,12.57
2023-05-10T00:47:50.759Z,12.53
2023-05-10T00:48:44.219Z,12.44
2023-05-10T00:49:37.207Z,12.44
2023-05-10T00:50:33.880Z,12.48
2023-05-10T00:51:26.235Z,12.55
2023-05-10T00:52:20.914Z,12.52
2023-05-10T00:53:13.324Z,12.50
2023-05-10T00:54:05.094Z,12.56
2023-05-10T00:54:57.869Z,12.64
2023-05-10T00:55:49.736Z,12.66
2023-05-10T00:56:42.030Z,12.62
2023-05-10T00:57:33.797Z,12.66
2023-05-10T00:58:28.921Z,12.63
2023-05-10T00:59:21.740Z,12.59
2023-05-10T01:00:14.024Z,12.54
2023-05-10T01:01:06.887Z,12.53
2023-05-10T01:02:00.413Z,12.53
2023-05-10T01:02:52.427Z,12.52
2023-05-10T01:03:44.727Z,12.47
2023-05-10T01:04:37.493Z,12.47
2023-05-10T01:05:29.018Z,12.44
2023-05-10T01:06:23.966Z,12.39
2023-05-10T01:07:17.190Z,12.41
2023-05-10T01:08:10.769Z,12.43
2023-05-10T01:09:05.612Z,12.43
2023-05-10T01:09:58.444Z,12.47
2023-05-10T01:10:50.584Z,12.44
2023-05-10T01:11:42.331Z,12.45
2023-05-10T01:12:40.610Z,12.42
2023-05-10T01:13:41.790Z,12.49
2023-05-10T01:14:35.562Z,12.50
2023-05-10T01:15:30.456Z,12.50
2023-05-10T01:16:27.797Z,12.49
2023-05-10T01:17:20.622Z,12.52
2023-05-10T01:18:12.273Z,12.43
2023-05-10T01:19:11.755Z,12.46
2023-05-10T01:20:03.578Z,12.54
2023-05-10T01:21:15.713Z,12.58
2023-05-10T01:22:32.222Z,12.66
2023-05-10T01:23:44.140Z,12.56
2023-05-10T01:24:59.876Z,12.44
2023-05-10T01:26:13.937Z,12.41
2023-05-10T01:27:48.728Z,12.46
2023-05-10T01:28:56.955Z,12.42
2023-05-10T01:30:18.189Z,12.42
2023-05-10T01:31:31.656Z,12.49
2023-05-10T01:32:38.538Z,12.48
2023-05-10T01:33:42.623Z,12.55
2023-05-10T01:35:13.873Z,12.56
2023-05-10T01:36:17.223Z,12.57
2023-05-10T01:37:16.353Z,12.59
2023-05-10T01:38:32.464Z,12.61
2023-05-10T01:39:38.557Z,12.57
2023-05-10T01:40:38.473Z,12.57
2023-05-10T01:41:48.970Z,12.54
2023-05-10T01:42:52.262Z,12.57
2023-05-10T01:44:07.304Z,12.56
2023-05-10T01:45:12.298Z,12.56
2023-05-10T01:46:13.350Z,12.61
2023-05-10T01:47:11.878Z,12.64
2023-05-10T01:48:15.719Z,12.67
2023-05-10T01:49:21.662Z,12.67
2023-05-10T01:50:31.758Z,12.72
2023-05-10T01:51:26.095Z,12.73
2023-05-10T01:52:23.361Z,12.77
2023-05-10T01:53:19.892Z,12.82
2023-05-10T01:54:15.057Z,12.86
2023-05-10T01:55:10.469Z,12.86
2023-05-10T01:56:04.715Z,12.75
2023-05-10T01:57:04.713Z,12.76
2023-05-10T01:58:06.131Z,12.76
2023-05-10T01:59:07.004Z,12.79
2023-05-10T02:00:01.911Z,12.75
2023-05-10T02:00:55.725Z,12.72
2023-05-10T02:01:50.863Z,12.66
2023-05-10T02:02:47.426Z,12.65
2023-05-10T02:03:41.337Z,12.67
2023-05-10T02:04:38.980Z,12.63
2023-05-10T02:05:33.792Z,12.64
2023-05-10T02:06:28.042Z,12.55
2023-05-10T02:07:27.854Z,12.49
2023-05-10T02:08:23.010Z,12.56
2023-05-10T02:09:17.790Z,12.59
2023-05-10T02:10:11.544Z,12.58
2023-05-10T02:11:06.439Z,12.59
2023-05-10T02:12:04.836Z,12.57
2023-05-10T02:13:00.754Z,12.44
2023-05-10T02:13:58.480Z,12.48
2023-05-10T02:14:55.361Z,12.48
2023-05-10T02:15:52.534Z,12.51
2023-05-10T02:16:46.124Z,12.54
2023-05-10T02:17:40.802Z,12.51
2023-05-10T02:18:35.708Z,12.50
2023-05-10T02:19:29.670Z,12.54
2023-05-10T02:20:25.402Z,12.53
2023-05-10T02:21:18.732Z,12.54
2023-05-10T02:22:11.300Z,12.53
2023-05-10T02:23:05.434Z,12.53
2023-05-10T02:24:02.542Z,12.51
2023-05-10T02:24:58.616Z,12.43
2023-05-10T02:25:52.391Z,12.45
2023-05-10T02:26:47.757Z,12.49
2023-05-10T02:27:43.589Z,12.48
2023-05-10T02:28:38.575Z,12.50
2023-05-10T02:29:33.382Z,12.52
2023-05-10T02:30:26.274Z,12.56
2023-05-10T02:31:22.350Z,12.57
2023-05-10T02:32:17.050Z,12.58
2023-05-10T02:33:09.458Z,12.58
2023-05-10T02:34:04.062Z,12.58
2023-05-10T02:34:59.310Z,12.59
2023-05-10T02:35:52.271Z,12.60
2023-05-10T02:36:44.178Z,12.55
2023-05-10T02:37:38.424Z,12.56
2023-05-10T02:38:34.305Z,12.58
2023-05-10T02:39:29.553Z,12.46
2023-05-10T02:40:26.203Z,12.41
2023-05-10T02:41:23.406Z,12.43
2023-05-10T02:42:20.006Z,12.46
2023-05-10T02:43:18.008Z,12.41
2023-05-10T02:44:11.630Z,12.42
2023-05-10T02:45:08.963Z,12.46
2023-05-10T02:46:01.014Z,12.47
2023-05-10T02:46:52.640Z,12.49
2023-05-10T02:47:44.766Z,12.55
2023-05-10T02:48:36.354Z,12.56
2023-05-10T02:49:27.832Z,12.59
2023-05-10T02:50:21.059Z,12.55
2023-05-10T02:51:18.570Z,12.56
2023-05-10T02:52:12.026Z,12.58
2023-05-10T02:53:16.312Z,12.61
2023-05-10T02:54:21.274Z,12.59
2023-05-10T02:55:17.110Z,12.50
2023-05-10T02:56:26.730Z,12.48
2023-05-10T02:57:26.152Z,12.49
2023-05-10T02:58:20.177Z,12.55
2023-05-10T02:59:12.053Z,12.46
2023-05-10T03:00:06.651Z,12.49
2023-05-10T03:01:01.251Z,12.49
2023-05-10T03:01:53.699Z,12.53
2023-05-10T03:02:45.354Z,12.56
2023-05-10T03:03:36.793Z,12.56
2023-05-10T03:04:28.400Z,12.56
2023-05-10T03:05:22.256Z,12.55
2023-05-10T03:06:13.826Z,12.52
2023-05-10T03:07:05.802Z,12.55
2023-05-10T03:07:57.719Z,12.49
2023-05-10T03:08:49.237Z,12.43
2023-05-10T03:09:42.179Z,12.43
2023-05-10T03:10:44.693Z,12.45
2023-05-10T03:11:55.038Z,12.44
2023-05-10T03:13:13.826Z,12.48
2023-05-10T03:14:33.278Z,12.51
2023-05-10T03:15:50.745Z,12.53
2023-05-10T03:16:50.131Z,12.55
2023-05-10T03:17:50.221Z,12.55
2023-05-10T03:19:07.832Z,12.55
2023-05-10T03:20:05.414Z,12.53
2023-05-10T03:21:03.934Z,12.56
2023-05-10T03:22:04.572Z,12.59
2023-05-10T03:23:11.640Z,12.57
2023-05-10T03:24:09.960Z,12.62
2023-05-10T03:25:07.614Z,12.61
2023-05-10T03:26:01.281Z,12.62
2023-05-10T03:26:57.726Z,12.49
2023-05-10T03:27:50.677Z,12.44
2023-05-10T03:28:45.823Z,12.44
2023-05-10T03:29:39.962Z,12.42
2023-05-10T03:30:33.359Z,12.39
2023-05-10T03:31:25.557Z,12.45
2023-05-10T03:32:17.084Z,12.47
2023-05-10T03:33:08.852Z,12.46
2023-05-10T03:34:08.214Z,12.47
2023-05-10T03:34:59.655Z,12.52
2023-05-10T03:35:56.603Z,12.54
2023-05-10T03:36:48.068Z,12.58
2023-05-10T03:37:40.113Z,12.61
2023-05-10T03:38:31.607Z,12.62
2023-05-10T03:39:23.488Z,12.62
2023-05-10T03:40:19.954Z,12.64
2023-05-10T03:41:13.116Z,12.66
2023-05-10T03:42:04.770Z,12.67
2023-05-10T03:42:56.557Z,12.64
2023-05-10T03:43:48.026Z,12.61
2023-05-10T03:44:41.174Z,12.59
2023-05-10T03:45:34.403Z,12.58
2023-05-10T03:46:26.162Z,12.58
2023-05-10T03:47:18.045Z,12.55
2023-05-10T03:48:09.608Z,12.57
2023-05-10T03:49:01.110Z,12.55
2023-05-10T03:49:52.808Z,12.57
2023-05-10T03:50:44.354Z,12.59
2023-05-10T03:51:36.131Z,12.63
2023-05-10T03:52:27.635Z,12.63
2023-05-10T03:53:19.407Z,12.64
2023-05-10T03:54:10.826Z,12.62
2023-05-10T03:55:04.541Z,12.65
2023-05-10T03:55:58.645Z,12.69
2023-05-10T03:56:50.224Z,12.70
2023-05-10T03:57:43.724Z,12.68
2023-05-10T03:58:37.379Z,12.69
2023-05-10T03:59:31.107Z,12.68
2023-05-10T04:00:24.649Z,12.67
2023-05-10T04:01:19.234Z,12.69
2023-05-10T04:02:11.839Z,12.69
2023-05-10T04:03:03.531Z,12.69
2023-05-10T04:03:57.150Z,12.71
2023-05-10T04:04:49.225Z,12.72
2023-05-10T04:05:41.192Z,12.71
2023-05-10T04:06:34.390Z,12.73
2023-05-10T04:07:27.168Z,12.72
2023-05-10T04:08:18.764Z,12.70
2023-05-10T04:09:10.230Z,12.67
2023-05-10T04:10:02.196Z,12.64
2023-05-10T04:10:54.667Z,12.64
2023-05-10T04:11:46.166Z,12.63
2023-05-10T04:12:37.802Z,12.66
2023-05-10T04:13:29.527Z,12.68
2023-05-10T04:14:23.547Z,12.65
2023-05-10T04:15:15.273Z,12.66
2023-05-10T04:16:06.990Z,12.63
2023-05-10T04:16:58.522Z,12.65
2023-05-10T04:17:51.360Z,12.65
2023-05-10T04:18:42.879Z,12.64
2023-05-10T04:19:34.880Z,12.67
2023-05-10T04:20:27.338Z,12.69
2023-05-10T04:21:21.334Z,12.72
2023-05-10T04:22:12.895Z,12.72
2023-05-10T04:23:04.968Z,12.74
2023-05-10T04:23:59.172Z,12.75
2023-05-10T04:24:50.626Z,12.79
2023-05-10T04:25:42.071Z,12.81
2023-05-10T04:26:34.622Z,12.72
2023-05-10T04:27:26.088Z,12.76
2023-05-10T04:28:17.731Z,12.79
2023-05-10T04:29:09.168Z,12.81
2023-05-10T04:30:00.623Z,12.83
2023-05-10T04:30:52.411Z,12.82
2023-05-10T04:31:43.977Z,12.77
2023-05-10T04:32:36.600Z,12.78
2023-05-10T04:33:30.668Z,12.82
2023-05-10T04:34:22.292Z,12.80
2023-05-10T04:35:15.717Z,12.74
2023-05-10T04:36:07.726Z,12.72
2023-05-10T04:36:59.184Z,12.72
2023-05-10T04:37:50.589Z,12.71
2023-05-10T04:38:42.274Z,12.72
2023-05-10T04:39:33.886Z,12.73
2023-05-10T04:40:26.526Z,12.72
2023-05-10T04:41:17.910Z,12.72
2023-05-10T04:42:09.633Z,12.74
2023-05-10T04:43:03.840Z,12.77
2023-05-10T04:43:55.737Z,12.74
2023-05-10T04:44:47.198Z,12.73
2023-05-10T04:45:38.630Z,12.68
2023-05-10T04:46:32.584Z,12.65
2023-05-10T04:47:24.120Z,12.68
2023-05-10T04:48:15.729Z,12.72
2023-05-10T04:49:07.163Z,12.75
2023-05-10T04:49:58.897Z,12.73
2023-05-10T04:50:50.377Z,12.72
2023-05-10T04:51:41.930Z,12.73
2023-05-10T04:52:33.436Z,12.73
2023-05-10T04:53:29.993Z,12.73
2023-05-10T04:54:21.457Z,12.72
2023-05-10T04:55:12.873Z,12.71
2023-05-10T04:56:06.913Z,12.74
2023-05-10T04:56:58.356Z,12.77
2023-05-10T04:57:52.634Z,12.77
2023-05-10T04:58:44.211Z,12.77
2023-05-10T04:59:37.535Z,12.80
2023-05-10T05:00:29.151Z,12.80
2023-05-10T05:01:26.086Z,12.83
2023-05-10T05:02:19.850Z,12.85
2023-05-10T05:03:11.535Z,12.87
2023-05-10T05:04:03.406Z,12.83
2023-05-10T05:04:57.170Z,12.80
2023-05-10T05:05:49.285Z,12.80
2023-05-10T05:06:40.700Z,12.83
2023-05-10T05:07:32.244Z,12.84
2023-05-10T05:08:24.648Z,12.85
2023-05-10T05:09:16.441Z,12.83
2023-05-10T05:10:09.316Z,12.85
2023-05-10T05:11:01.177Z,12.89
2023-05-10T05:11:52.690Z,12.90
2023-05-10T05:12:46.391Z,12.92
2023-05-10T05:13:38.442Z,12.99
2023-05-10T05:14:32.252Z,12.92
2023-05-10T05:15:24.035Z,12.86
2023-05-10T05:16:15.462Z,12.89
2023-05-10T05:17:09.401Z,12.93
2023-05-10T05:18:01.156Z,12.92
2023-05-10T05:18:52.646Z,12.97
2023-05-10T05:19:44.206Z,13.00
2023-05-10T05:20:35.940Z,13.00
2023-05-10T05:21:28.039Z,12.91
2023-05-10T05:22:21.950Z,12.90
2023-05-10T05:23:13.397Z,12.87
2023-05-10T05:24:05.427Z,12.82
2023-05-10T05:24:57.845Z,12.71
2023-05-10T05:25:53.106Z,12.76
2023-05-10T05:26:47.075Z,12.78
2023-05-10T05:27:38.741Z,12.76
2023-05-10T05:28:34.074Z,12.72
2023-05-10T05:29:25.669Z,12.75
2023-05-10T05:30:17.335Z,12.74
2023-05-10T05:31:09.391Z,12.78
2023-05-10T05:32:01.301Z,12.77
2023-05-10T05:32:53.359Z,12.81
2023-05-10T05:33:44.878Z,12.87
2023-05-10T05:34:36.339Z,12.92
2023-05-10T05:35:27.899Z,12.95
2023-05-10T05:36:21.230Z,12.97
2023-05-10T05:37:17.760Z,12.96
2023-05-10T05:38:09.819Z,12.95
2023-05-10T05:39:01.277Z,12.85
2023-05-10T05:39:52.750Z,12.81
2023-05-10T05:40:44.357Z,12.82
2023-05-10T05:41:35.799Z,12.77
2023-05-10T05:42:27.315Z,12.67
2023-05-10T05:43:18.719Z,12.66
2023-05-10T05:44:11.166Z,12.72
2023-05-10T05:45:02.621Z,12.67
2023-05-10T05:45:55.113Z,12.76
2023-05-10T05:46:46.641Z,12.82
2023-05-10T05:47:38.092Z,12.79
2023-05-10T05:48:31.680Z,12.75
2023-05-10T05:49:26.008Z,12.88
2023-05-10T05:50:19.687Z,12.79
2023-05-10T05:51:11.669Z,12.86
2023-05-10T05:52:04.891Z,12.92
2023-05-10T05:52:58.815Z,12.84
2023-05-10T05:53:57.879Z,12.79
2023-05-10T05:54:49.315Z,12.90
2023-05-10T05:55:40.928Z,12.97
2023-05-10T05:56:32.478Z,13.00
2023-05-10T05:57:24.171Z,12.99
2023-05-10T05:58:15.619Z,12.95
2023-05-10T05:59:07.521Z,12.89
2023-05-10T05:59:59.078Z,12.91
2023-05-10T06:00:51.198Z,12.99
2023-05-10T06:01:42.737Z,13.02
2023-05-10T06:02:34.557Z,12.98
2023-05-10T06:03:29.373Z,12.96
2023-05-10T06:04:21.041Z,12.91
2023-05-10T06:05:15.045Z,12.97
2023-05-10T06:06:06.744Z,12.92
2023-05-10T06:07:00.635Z,12.89
2023-05-10T06:07:52.409Z,12.95
2023-05-10T06:08:44.060Z,12.95
2023-05-10T06:09:38.208Z,12.95
2023-05-10T06:10:29.684Z,12.83
2023-05-10T06:11:22.999Z,12.89
2023-05-10T06:12:14.995Z,12.73
2023-05-10T06:13:06.590Z,12.76
2023-05-10T06:13:58.408Z,12.80
2023-05-10T06:14:49.795Z,12.84
2023-05-10T06:15:41.843Z,12.96
2023-05-10T06:16:35.847Z,13.03
2023-05-10T06:17:27.547Z,13.06
2023-05-10T06:18:19.007Z,13.06
2023-05-10T06:19:10.395Z,13.07
2023-05-10T06:20:01.828Z,13.05
2023-05-10T06:20:53.334Z,13.13
2023-05-10T06:21:44.792Z,13.12
2023-05-10T06:22:36.230Z,13.19
2023-05-10T06:23:29.643Z,13.19
2023-05-10T06:24:21.052Z,13.21
2023-05-10T06:25:12.691Z,13.23
2023-05-10T06:26:04.166Z,13.20
2023-05-10T06:26:55.872Z,13.06
2023-05-10T06:27:51.129Z,13.02
2023-05-10T06:28:45.342Z,12.99
2023-05-10T06:29:46.547Z,13.02
2023-05-10T06:30:38.055Z,13.11
2023-05-10T06:31:29.704Z,13.09
2023-05-10T06:32:21.174Z,13.11
2023-05-10T06:33:14.115Z,13.20
2023-05-10T06:34:05.577Z,13.28
2023-05-10T06:34:56.971Z,13.31
2023-05-10T06:35:48.684Z,13.21
2023-05-10T06:36:40.250Z,13.26
2023-05-10T06:37:31.911Z,13.28
2023-05-10T06:38:23.483Z,13.26
2023-05-10T06:39:15.051Z,13.11
2023-05-10T06:40:07.738Z,12.99
2023-05-10T06:40:59.145Z,13.04
2023-05-10T06:41:50.636Z,13.04
2023-05-10T06:42:45.717Z,13.07
2023-05-10T06:43:42.273Z,13.13
2023-05-10T06:44:34.162Z,13.02
2023-05-10T06:45:25.708Z,13.10
2023-05-10T06:46:17.178Z,13.13
2023-05-10T06:47:08.878Z,13.06
2023-05-10T06:48:00.641Z,12.99
2023-05-10T06:48:54.393Z,12.96
2023-05-10T06:49:46.070Z,12.99
2023-05-10T06:50:37.491Z,13.01
2023-05-10T06:51:28.971Z,12.96
2023-05-10T06:52:20.906Z,12.98
2023-05-10T06:53:12.987Z,13.05
2023-05-10T06:54:04.700Z,13.09
2023-05-10T06:54:56.360Z,13.07
2023-05-10T06:55:47.840Z,13.03
2023-05-10T06:56:39.522Z,13.00
2023-05-10T06:57:32.338Z,13.07
2023-05-10T06:58:24.205Z,12.96
2023-05-10T06:59:17.482Z,12.98
2023-05-10T07:00:10.740Z,12.95
2023-05-10T07:01:13.138Z,12.92
2023-05-10T07:02:05.033Z,12.96
2023-05-10T07:02:57.015Z,12.95
2023-05-10T07:03:48.525Z,12.95
2023-05-10T07:04:40.006Z,12.92
2023-05-10T07:05:31.538Z,12.98
2023-05-10T07:06:33.253Z,13.02
2023-05-10T07:07:27.994Z,12.98
2023-05-10T07:08:19.632Z,12.93
2023-05-10T07:09:14.357Z,12.97
2023-05-10T07:10:06.506Z,13.00
2023-05-10T07:11:05.782Z,13.04
2023-05-10T07:11:58.246Z,13.04
2023-05-10T07:12:49.817Z,13.06
2023-05-10T07:13:44.905Z,13.12
2023-05-10T07:14:36.541Z,13.16
2023-05-10T07:15:28.040Z,13.09
2023-05-10T07:16:19.659Z,13.12
2023-05-10T07:17:11.242Z,13.18
2023-05-10T07:18:03.185Z,13.18
2023-05-10T07:18:58.064Z,13.20
2023-05-10T07:19:49.578Z,13.21
2023-05-10T07:20:41.268Z,13.25
2023-05-10T07:21:33.137Z,13.24
2023-05-10T07:22:24.805Z,13.26
2023-05-10T07:23:16.207Z,13.27
2023-05-10T07:24:07.653Z,13.16
2023-05-10T07:24:59.356Z,13.19
2023-05-10T07:25:55.346Z,13.25
2023-05-10T07:26:47.073Z,13.20
2023-05-10T07:27:38.954Z,13.25
2023-05-10T07:28:32.995Z,13.27
2023-05-10T07:29:24.711Z,13.30
2023-05-10T07:30:16.545Z,13.25
2023-05-10T07:31:08.139Z,13.21
2023-05-10T07:31:59.747Z,13.27
2023-05-10T07:32:51.379Z,13.27
2023-05-10T07:33:45.173Z,13.33
2023-05-10T07:34:36.712Z,13.39
2023-05-10T07:35:29.205Z,13.41
2023-05-10T07:36:20.620Z,13.35
2023-05-10T07:37:12.507Z,13.31
2023-05-10T07:38:04.294Z,13.41
2023-05-10T07:38:56.107Z,13.49
2023-05-10T07:39:47.575Z,13.56
2023-05-10T07:40:40.736Z,13.55
2023-05-10T07:41:32.222Z,13.56
2023-05-10T07:42:24.101Z,13.66
2023-05-10T07:43:15.572Z,13.72
2023-05-10T07:44:09.196Z,13.71
2023-05-10T07:45:01.014Z,13.74
2023-05-10T07:45:56.388Z,13.70
2023-05-10T07:46:49.345Z,13.58
2023-05-10T07:47:41.030Z,13.70
2023-05-10T07:48:32.704Z,13.72
2023-05-10T07:49:27.171Z,13.64
2023-05-10T07:50:18.962Z,13.72
2023-05-10T07:51:10.602Z,13.79
2023-05-10T07:52:06.888Z,13.83
2023-05-10T07:53:01.691Z,13.94
2023-05-10T07:54:03.435Z,13.98
2023-05-10T07:54:55.501Z,14.04
2023-05-10T07:55:52.672Z,13.98
2023-05-10T07:56:48.141Z,13.98
2023-05-10T07:57:46.278Z,13.96
2023-05-10T07:58:39.503Z,13.96
2023-05-10T07:59:35.913Z,13.74
2023-05-10T08:00:28.320Z,13.76
2023-05-10T08:01:23.053Z,13.74
2023-05-10T08:02:16.745Z,13.64
2023-05-10T08:03:12.670Z,13.67
2023-05-10T08:04:04.459Z,13.72
2023-05-10T08:04:56.819Z,13.76
2023-05-10T08:05:53.308Z,13.80
2023-05-10T08:06:45.598Z,13.82
2023-05-10T08:07:42.353Z,13.84
2023-05-10T08:08:34.547Z,13.81
2023-05-10T08:09:33.303Z,13.69
2023-05-10T08:10:28.882Z,13.69
2023-05-10T08:11:24.400Z,13.60
2023-05-10T08:12:29.280Z,13.47
2023-05-10T08:13:27.730Z,13.54
2023-05-10T08:14:23.446Z,13.67
2023-05-10T08:15:15.741Z,13.65
2023-05-10T08:16:12.782Z,13.71
2023-05-10T08:17:05.224Z,13.65
2023-05-10T08:18:08.929Z,13.67
2023-05-10T08:19:01.048Z,13.68
2023-05-10T08:19:54.214Z,13.58
2023-05-10T08:20:48.566Z,13.60
2023-05-10T08:21:43.251Z,13.52
2023-05-10T08:22:56.892Z,13.51
2023-05-10T08:23:51.707Z,13.64
2023-05-10T08:24:47.590Z,13.78
2023-05-10T08:25:50.579Z,13.95
2023-05-10T08:26:45.195Z,13.89
2023-05-10T08:27:44.201Z,13.84
2023-05-10T08:28:36.537Z,13.73
2023-05-10T08:29:32.792Z,13.79
2023-05-10T08:30:30.444Z,13.77
2023-05-10T08:31:28.116Z,13.77
2023-05-10T08:32:35.516Z,13.89
2023-05-10T08:35:36.416Z,14.15
2023-05-10T08:36:29.154Z,14.12
2023-05-10T08:37:47.585Z,14.08
2023-05-10T08:38:41.676Z,14.08
2023-05-10T08:39:39.577Z,14.12
2023-05-10T08:40:31.626Z,14.12
2023-05-10T08:41:26.692Z,14.05
2023-05-10T08:42:26.750Z,14.06
2023-05-10T08:43:19.971Z,14.07
2023-05-10T08:44:58.695Z,14.03
2023-05-10T08:45:26.626Z,14.13
2023-05-10T08:46:22.746Z,14.05
2023-05-10T08:47:19.171Z,14.11
2023-05-10T08:48:12.753Z,13.98
2023-05-10T08:49:07.701Z,13.87
2023-05-10T08:50:01.846Z,13.87
2023-05-10T08:50:56.089Z,13.91
2023-05-10T08:51:56.048Z,13.91
2023-05-10T08:52:52.158Z,13.96
2023-05-10T08:53:46.007Z,14.04
2023-05-10T08:54:42.105Z,14.02
2023-05-10T08:55:39.477Z,14.16
2023-05-10T08:56:31.659Z,14.35
2023-05-10T08:57:26.027Z,14.41
2023-05-10T08:58:22.755Z,14.54
2023-05-10T08:59:54.864Z,14.52
2023-05-10T09:00:53.667Z,14.37
2023-05-10T09:01:58.516Z,14.40
2023-05-10T09:03:25.654Z,14.40
2023-05-10T09:04:24.058Z,14.41
2023-05-10T09:05:23.207Z,14.37
2023-05-10T09:06:19.177Z,14.42
2023-05-10T09:07:22.473Z,14.30
2023-05-10T09:09:05.902Z,14.42
2023-05-10T09:10:14.344Z,14.46
2023-05-10T09:11:06.421Z,14.42
2023-05-10T09:12:12.506Z,14.52
2023-05-10T09:13:12.974Z,14.52
2023-05-10T09:14:29.511Z,14.63
2023-05-10T09:15:26.206Z,14.65
2023-05-10T09:17:59.168Z,14.65
2023-05-10T09:18:57.254Z,14.54
2023-05-10T09:20:08.434Z,14.54
2023-05-10T09:21:12.566Z,14.36
2023-05-10T09:22:07.234Z,14.41
2023-05-10T09:23:06.987Z,14.51
2023-05-10T09:24:04.407Z,14.59
2023-05-10T09:25:17.885Z,14.69
2023-05-10T09:26:15.324Z,14.61
2023-05-10T09:27:07.397Z,14.39
2023-05-10T09:28:01.642Z,14.51
2023-05-10T09:28:58.870Z,14.64
2023-05-10T09:29:56.101Z,14.70
2023-05-10T09:30:56.999Z,14.78
2023-05-10T09:31:55.627Z,14.79
2023-05-10T09:32:49.263Z,14.86
2023-05-10T09:33:52.346Z,14.80
2023-05-10T09:34:46.319Z,14.65
2023-05-10T09:35:41.243Z,14.75
2023-05-10T09:37:09.172Z,14.83
2023-05-10T09:38:04.151Z,14.77
2023-05-10T09:38:57.032Z,14.82
2023-05-10T09:39:57.245Z,14.84
2023-05-10T09:40:57.325Z,14.89
2023-05-10T09:41:54.999Z,15.00
2023-05-10T09:43:26.559Z,15.09
2023-05-10T09:44:22.886Z,15.08
2023-05-10T09:45:19.500Z,14.83
2023-05-10T09:46:18.982Z,14.99
2023-05-10T09:47:10.896Z,15.12
2023-05-10T09:48:04.409Z,15.17
2023-05-10T09:49:01.643Z,14.78
2023-05-10T09:49:57.064Z,14.74
2023-05-10T09:50:57.663Z,14.75
2023-05-10T09:52:05.078Z,14.89
2023-05-10T09:53:00.029Z,14.97
2023-05-10T09:54:11.531Z,14.95
2023-05-10T09:55:05.504Z,15.10
2023-05-10T09:55:56.973Z,15.23
2023-05-10T09:56:48.404Z,15.35
2023-05-10T09:57:41.736Z,15.43
2023-05-10T09:58:39.065Z,15.46
2023-05-10T09:59:35.669Z,15.61
2023-05-10T10:00:29.244Z,15.81
2023-05-10T10:01:20.879Z,15.64
2023-05-10T10:02:13.267Z,15.61
2023-05-10T10:03:05.977Z,15.41
2023-05-10T10:03:59.590Z,15.34
2023-05-10T10:04:54.483Z,15.34
2023-05-10T10:05:49.295Z,15.45
2023-05-10T10:06:49.511Z,15.31
2023-05-10T10:08:04.093Z,15.18
2023-05-10T10:08:59.623Z,15.30
2023-05-10T10:09:52.391Z,15.35
2023-05-10T10:10:47.814Z,14.99
2023-05-10T10:11:42.661Z,15.06
2023-05-10T10:12:35.368Z,14.99
2023-05-10T10:13:29.054Z,15.09
2023-05-10T10:14:23.112Z,15.03
2023-05-10T10:15:21.785Z,14.94
2023-05-10T10:16:15.571Z,14.80
2023-05-10T10:17:13.822Z,14.89
2023-05-10T10:18:16.853Z,14.79
2023-05-10T10:19:10.207Z,14.64
2023-05-10T10:20:11.995Z,14.70
2023-05-10T10:22:58.195Z,14.80
2023-05-10T10:26:05.235Z,14.88
2023-05-10T10:28:57.225Z,15.13
2023-05-10T10:30:24.353Z,14.99
2023-05-10T10:31:40.467Z,15.07
2023-05-10T10:33:28.024Z,15.16
2023-05-10T10:34:35.399Z,15.30
2023-05-10T10:35:39.992Z,15.35
2023-05-10T10:36:58.094Z,15.46
2023-05-10T10:41:29.763Z,15.61
2023-05-10T10:42:52.746Z,15.58
2023-05-10T10:44:29.132Z,15.67
2023-05-10T10:45:22.786Z,15.85
2023-05-10T10:46:27.328Z,15.94
2023-05-10T10:47:41.882Z,15.98
2023-05-10T10:48:57.178Z,16.15
2023-05-10T10:50:06.666Z,16.05
2023-05-10T10:50:59.294Z,16.14
2023-05-10T10:52:17.264Z,16.22
2023-05-10T10:53:14.566Z,16.33
2023-05-10T10:54:11.535Z,16.46
2023-05-10T10:55:45.935Z,16.52
2023-05-10T10:56:45.635Z,16.52
2023-05-10T10:58:05.385Z,16.63
2023-05-10T10:59:00.887Z,16.67
2023-05-10T10:59:54.925Z,16.63
2023-05-10T11:00:46.566Z,16.65
2023-05-10T11:01:43.925Z,16.68
2023-05-10T11:02:42.333Z,16.60
2023-05-10T11:03:36.001Z,16.78
2023-05-10T11:04:28.783Z,16.86
2023-05-10T11:05:41.247Z,16.92
2023-05-10T11:06:37.382Z,16.90
2023-05-10T11:07:28.978Z,16.87
2023-05-10T11:08:31.706Z,16.69
2023-05-10T11:09:25.729Z,16.76
2023-05-10T11:10:21.634Z,16.72
2023-05-10T11:11:15.982Z,16.77
2023-05-10T11:12:11.229Z,16.77
2023-05-10T11:13:07.725Z,16.87
2023-05-10T11:14:06.240Z,16.98
2023-05-10T11:14:58.775Z,17.16
2023-05-10T11:15:58.130Z,17.22
2023-05-10T11:16:51.663Z,17.07
2023-05-10T11:17:43.828Z,17.24
2023-05-10T11:18:39.013Z,17.45
2023-05-10T11:19:31.533Z,17.56
2023-05-10T11:20:25.816Z,17.56
2023-05-10T11:21:17.285Z,17.52
2023-05-10T11:22:14.918Z,17.33
2023-05-10T11:23:16.802Z,17.31
2023-05-10T11:24:15.374Z,17.38
2023-05-10T11:25:07.972Z,17.26
2023-05-10T11:26:05.438Z,17.09
2023-05-10T11:27:00.025Z,16.84
2023-05-10T11:27:56.394Z,16.77
2023-05-10T11:28:50.054Z,16.68
2023-05-10T11:29:41.821Z,16.63
2023-05-10T11:30:33.327Z,16.58
2023-05-10T11:31:27.518Z,16.55
2023-05-10T11:32:21.756Z,16.35
2023-05-10T11:33:18.620Z,16.17
2023-05-10T11:34:13.642Z,16.22
2023-05-10T11:35:12.963Z,16.15
2023-05-10T11:36:04.581Z,16.13
2023-05-10T11:36:57.327Z,15.93
2023-05-10T11:37:49.266Z,15.93
2023-05-10T11:38:40.823Z,15.86
2023-05-10T11:39:35.152Z,15.88
2023-05-10T11:40:27.344Z,15.95
2023-05-10T11:41:22.743Z,15.97
2023-05-10T11:42:14.480Z,16.01
2023-05-10T11:43:06.664Z,16.00
2023-05-10T11:44:00.161Z,16.06
2023-05-10T11:44:51.666Z,16.14
2023-05-10T11:45:43.708Z,16.19
2023-05-10T11:46:37.383Z,16.35
2023-05-10T11:47:30.194Z,16.48
2023-05-10T11:48:24.689Z,16.60
2023-05-10T11:49:16.351Z,16.76
2023-05-10T11:50:08.020Z,16.92
2023-05-10T11:50:59.812Z,16.98
2023-05-10T11:51:51.251Z,16.97
2023-05-10T11:52:42.735Z,17.10
2023-05-10T11:53:34.916Z,17.28
2023-05-10T11:54:26.324Z,17.33
2023-05-10T11:55:17.830Z,17.39
2023-05-10T11:56:11.297Z,17.42
2023-05-10T11:57:05.873Z,17.41
2023-05-10T11:58:02.192Z,17.51
2023-05-10T11:58:56.887Z,17.51
2023-05-10T11:59:48.387Z,17.54
2023-05-10T12:00:40.690Z,17.56
2023-05-10T12:01:32.547Z,17.53
2023-05-10T12:02:24.865Z,17.59
2023-05-10T12:03:16.795Z,17.60
2023-05-10T12:04:08.681Z,17.53
2023-05-10T12:05:01.383Z,17.48
2023-05-10T12:05:54.394Z,17.59
2023-05-10T12:06:47.473Z,17.54
2023-05-10T12:07:39.071Z,17.60
2023-05-10T12:08:31.886Z,17.52
2023-05-10T12:09:39.579Z,17.59